Cape Race, Canada
Current Conditions -  °F | °C
As of 3:00 AM on Sunday 26 Oct 2014 (Local Time) from CYYT Reporting Station
Drizzle Drizzle  
Wind Chill: 39°   Ceiling: 200
Heat Index: 46°   Visibility: 0.5mi
Dew Point: 46°   Wind: 17mph
Humidity: 100%   Direction: 30°NNE
Pressure: 29.38"   Gusts: 25mph
Location:  46.66°N, 53.09°W
Report Text: CYYT 260500Z 03015G22KT 1/2SM R11/4500FT/N DZ FG VV002 08/08 A2938 RMK FG8 SLP953
Loading
Personal Weather Stations






























Interactive Weather Map
Tropical Storm Tracking
New forecast layout! Learn more

10-Day Weather Forecast

Advertisements
Track Severe Weather on mobile